LDRI/RJK METAR and TAF weather

Enter ICAO airport designator
Station Type Date Time Source
LDRI METAR 2019/08/22 04:30 UTC NOAA

LDRI 220430Z 04013KT CAVOK 22/12 Q1020


Station Type Date Time Source
LDRI Decoded METAR 2019/08/22 04:30 UTC NOAA

Station name not available
Aug 22, 2019 - 12:30 AM EDT / 2019.08.22 0430 UTC
Wind: from the NE (040 degrees) at 15 MPH (13 KT):0
Visibility: greater than 7 mile(s):0
Temperature: 71 F (22 C)
Dew Point: 53 F (12 C)
Relative Humidity: 53%
Pressure (altimeter): 30.12 in. Hg (1020 hPa)
ob: LDRI 220430Z 04013KT CAVOK 22/12 Q1020
cycle: 4

Station Type Date Time Source
LDRI TAF 2019/08/21 18:27 UTC NOAA

TAF LDRI 211725Z 2118/2218 05012KT CAVOK TX29/2212Z TN21/2204Z PROB30
TEMPO 2118/2200 05018G28KT PROB30
TEMPO 2204/2208 VRB10KT TSRA FEW040CB BKN045

Example: see airport list